sensor_id;sensor_type;location;lat;lon;timestamp;temperature;humidity
66670;DHT22;53568;52.164;4.472;2022-09-09T00:02:20;18.49;75.32
66670;DHT22;53568;52.164;4.472;2022-09-09T00:05:00;18.38;75.87
66670;DHT22;53568;52.164;4.472;2022-09-09T00:10:15;18.38;76.24
66670;DHT22;53568;52.164;4.472;2022-09-09T00:18:36;18.22;76.90
66670;DHT22;53568;52.164;4.472;2022-09-09T00:21:08;18.15;77.08
66670;DHT22;53568;52.164;4.472;2022-09-09T00:23:45;18.26;77.03
66670;DHT22;53568;52.164;4.472;2022-09-09T00:29:12;18.33;76.53
66670;DHT22;53568;52.164;4.472;2022-09-09T00:31:39;18.35;76.37
66670;DHT22;53568;52.164;4.472;2022-09-09T00:34:14;18.36;76.36
66670;DHT22;53568;52.164;4.472;2022-09-09T00:36:42;18.36;76.35
66670;DHT22;53568;52.164;4.472;2022-09-09T00:42:24;18.22;76.64
66670;DHT22;53568;52.164;4.472;2022-09-09T00:44:56;18.15;76.87
66670;DHT22;53568;52.164;4.472;2022-09-09T00:47:29;18.26;76.79
66670;DHT22;53568;52.164;4.472;2022-09-09T00:52:42;18.46;76.39
66670;DHT22;53568;52.164;4.472;2022-09-09T00:55:24;18.42;76.28
66670;DHT22;53568;52.164;4.472;2022-09-09T00:57:54;18.43;76.24
66670;DHT22;53568;52.164;4.472;2022-09-09T01:03:10;18.35;76.57
66670;DHT22;53568;52.164;4.472;2022-09-09T01:09:32;18.18;77.14
66670;DHT22;53568;52.164;4.472;2022-09-09T01:14:24;18.18;77.25
66670;DHT22;53568;52.164;4.472;2022-09-09T01:17:22;18.08;77.24
66670;DHT22;53568;52.164;4.472;2022-09-09T01:25:56;17.95;77.72
66670;DHT22;53568;52.164;4.472;2022-09-09T01:28:20;18.01;77.90
66670;DHT22;53568;52.164;4.472;2022-09-09T01:30:47;18.11;77.45
66670;DHT22;53568;52.164;4.472;2022-09-09T01:33:16;18.18;77.31
66670;DHT22;53568;52.164;4.472;2022-09-09T01:36:06;18.24;77.02
66670;DHT22;53568;52.164;4.472;2022-09-09T01:38:35;18.29;76.78
66670;DHT22;53568;52.164;4.472;2022-09-09T01:41:01;18.33;76.48
66670;DHT22;53568;52.164;4.472;2022-09-09T01:43:28;18.32;76.28
66670;DHT22;53568;52.164;4.472;2022-09-09T01:45:56;18.38;76.21
66670;DHT22;53568;52.164;4.472;2022-09-09T01:48:25;18.45;75.80
66670;DHT22;53568;52.164;4.472;2022-09-09T01:50:51;18.42;75.72
66670;DHT22;53568;52.164;4.472;2022-09-09T01:53:18;18.43;75.78
66670;DHT22;53568;52.164;4.472;2022-09-09T02:03:35;18.55;75.25
66670;DHT22;53568;52.164;4.472;2022-09-09T02:06:05;18.55;74.96
66670;DHT22;53568;52.164;4.472;2022-09-09T02:08:56;18.59;74.76
66670;DHT22;53568;52.164;4.472;2022-09-09T02:11:26;18.60;74.72
66670;DHT22;53568;52.164;4.472;2022-09-09T02:14:16;18.60;74.35
66670;DHT22;53568;52.164;4.472;2022-09-09T02:16:47;18.62;74.22
66670;DHT22;53568;52.164;4.472;2022-09-09T02:19:21;18.63;74.19
66670;DHT22;53568;52.164;4.472;2022-09-09T02:21:53;18.57;74.01
66670;DHT22;53568;52.164;4.472;2022-09-09T02:24:21;18.49;73.99
66670;DHT22;53568;52.164;4.472;2022-09-09T02:26:51;18.49;74.19
66670;DHT22;53568;52.164;4.472;2022-09-09T02:29:31;18.51;73.92
66670;DHT22;53568;52.164;4.472;2022-09-09T02:32:03;18.52;73.94
66670;DHT22;53568;52.164;4.472;2022-09-09T02:34:34;18.52;74.07
66670;DHT22;53568;52.164;4.472;2022-09-09T02:37:03;18.49;74.06
66670;DHT22;53568;52.164;4.472;2022-09-09T02:39:29;18.41;74.18
66670;DHT22;53568;52.164;4.472;2022-09-09T02:41:54;18.42;74.08
66670;DHT22;53568;52.164;4.472;2022-09-09T02:44:20;18.42;74.24
66670;DHT22;53568;52.164;4.472;2022-09-09T02:52:27;18.35;74.41
66670;DHT22;53568;52.164;4.472;2022-09-09T02:55:14;18.38;74.25
66670;DHT22;53568;52.164;4.472;2022-09-09T02:57:45;18.38;74.09
66670;DHT22;53568;52.164;4.472;2022-09-09T03:00:13;18.28;74.27
66670;DHT22;53568;52.164;4.472;2022-09-09T03:02:39;18.29;74.26
66670;DHT22;53568;52.164;4.472;2022-09-09T03:05:06;18.32;74.15
66670;DHT22;53568;52.164;4.472;2022-09-09T03:07:31;18.31;74.16
66670;DHT22;53568;52.164;4.472;2022-09-09T03:09:57;18.31;74.12
66670;DHT22;53568;52.164;4.472;2022-09-09T03:12:24;18.35;74.11
66670;DHT22;53568;52.164;4.472;2022-09-09T03:14:49;18.35;74.06
66670;DHT22;53568;52.164;4.472;2022-09-09T03:17:15;18.32;73.86
66670;DHT22;53568;52.164;4.472;2022-09-09T03:19:40;18.25;73.79
66670;DHT22;53568;52.164;4.472;2022-09-09T03:22:06;18.11;74.02
66670;DHT22;53568;52.164;4.472;2022-09-09T03:24:31;18.13;74.08
66670;DHT22;53568;52.164;4.472;2022-09-09T03:26:57;18.00;74.42
66670;DHT22;53568;52.164;4.472;2022-09-09T03:29:22;17.98;74.66
66670;DHT22;53568;52.164;4.472;2022-09-09T03:31:48;18.00;74.77
66670;DHT22;53568;52.164;4.472;2022-09-09T03:34:13;18.01;74.89
66670;DHT22;53568;52.164;4.472;2022-09-09T03:36:39;18.05;74.76
66670;DHT22;53568;52.164;4.472;2022-09-09T03:39:06;18.09;74.34
66670;DHT22;53568;52.164;4.472;2022-09-09T03:41:31;18.08;74.35
66670;DHT22;53568;52.164;4.472;2022-09-09T03:43:57;18.06;74.45
66670;DHT22;53568;52.164;4.472;2022-09-09T03:46:24;18.08;74.35
66670;DHT22;53568;52.164;4.472;2022-09-09T03:48:51;18.08;74.26
66670;DHT22;53568;52.164;4.472;2022-09-09T03:51:18;18.13;74.23
66670;DHT22;53568;52.164;4.472;2022-09-09T03:53:44;18.15;73.76
66670;DHT22;53568;52.164;4.472;2022-09-09T03:56:10;18.15;73.91
66670;DHT22;53568;52.164;4.472;2022-09-09T03:58:37;18.21;73.72
66670;DHT22;53568;52.164;4.472;2022-09-09T04:01:04;18.08;73.71
66670;DHT22;53568;52.164;4.472;2022-09-09T04:03:30;18.11;73.92
66670;DHT22;53568;52.164;4.472;2022-09-09T04:05:58;18.16;73.91
66670;DHT22;53568;52.164;4.472;2022-09-09T04:08:24;18.25;73.18
66670;DHT22;53568;52.164;4.472;2022-09-09T04:10:51;18.18;73.16
66670;DHT22;53568;52.164;4.472;2022-09-09T04:13:18;18.18;72.91
66670;DHT22;53568;52.164;4.472;2022-09-09T04:15:51;18.08;73.46
66670;DHT22;53568;52.164;4.472;2022-09-09T04:18:17;18.01;73.54
66670;DHT22;53568;52.164;4.472;2022-09-09T04:20:42;18.01;73.52
66670;DHT22;53568;52.164;4.472;2022-09-09T04:23:09;18.01;73.60
66670;DHT22;53568;52.164;4.472;2022-09-09T04:25:34;17.97;73.68
66670;DHT22;53568;52.164;4.472;2022-09-09T04:28:00;17.98;73.60
66670;DHT22;53568;52.164;4.472;2022-09-09T04:30:25;18.01;73.63
66670;DHT22;53568;52.164;4.472;2022-09-09T04:32:52;18.02;73.13
66670;DHT22;53568;52.164;4.472;2022-09-09T04:35:18;17.94;73.45
66670;DHT22;53568;52.164;4.472;2022-09-09T04:37:45;17.95;73.49
66670;DHT22;53568;52.164;4.472;2022-09-09T04:40:11;17.90;73.48
66670;DHT22;53568;52.164;4.472;2022-09-09T04:42:37;17.90;73.68
66670;DHT22;53568;52.164;4.472;2022-09-09T04:45:03;17.88;73.54
66670;DHT22;53568;52.164;4.472;2022-09-09T04:47:28;17.88;73.52
66670;DHT22;53568;52.164;4.472;2022-09-09T04:49:54;17.82;73.46
66670;DHT22;53568;52.164;4.472;2022-09-09T04:52:20;17.81;73.96
66670;DHT22;53568;52.164;4.472;2022-09-09T04:54:46;17.84;73.63
66670;DHT22;53568;52.164;4.472;2022-09-09T04:57:12;17.77;73.87
66670;DHT22;53568;52.164;4.472;2022-09-09T04:59:37;17.75;74.08
66670;DHT22;53568;52.164;4.472;2022-09-09T05:02:05;17.75;73.96
66670;DHT22;53568;52.164;4.472;2022-09-09T05:04:31;17.75;73.97
66670;DHT22;53568;52.164;4.472;2022-09-09T05:06:56;17.75;73.94
66670;DHT22;53568;52.164;4.472;2022-09-09T05:09:22;17.75;73.91
66670;DHT22;53568;52.164;4.472;2022-09-09T05:11:47;17.68;74.05
66670;DHT22;53568;52.164;4.472;2022-09-09T05:14:14;17.75;73.99
66670;DHT22;53568;52.164;4.472;2022-09-09T05:16:40;17.73;73.88
66670;DHT22;53568;52.164;4.472;2022-09-09T05:19:06;17.61;74.36
66670;DHT22;53568;52.164;4.472;2022-09-09T05:21:33;17.61;74.45
66670;DHT22;53568;52.164;4.472;2022-09-09T05:23:59;17.55;74.69
66670;DHT22;53568;52.164;4.472;2022-09-09T05:26:26;17.51;75.11
66670;DHT22;53568;52.164;4.472;2022-09-09T05:28:51;17.51;75.05
66670;DHT22;53568;52.164;4.472;2022-09-09T05:31:18;17.48;75.03
66670;DHT22;53568;52.164;4.472;2022-09-09T05:33:45;17.55;75.23
66670;DHT22;53568;52.164;4.472;2022-09-09T05:36:14;17.48;75.23
66670;DHT22;53568;52.164;4.472;2022-09-09T05:38:41;17.47;75.31
66670;DHT22;53568;52.164;4.472;2022-09-09T05:41:07;17.41;75.85
66670;DHT22;53568;52.164;4.472;2022-09-09T05:43:33;17.44;75.94
66670;DHT22;53568;52.164;4.472;2022-09-09T05:46:10;17.48;76.00
66670;DHT22;53568;52.164;4.472;2022-09-09T05:48:39;17.60;75.41
66670;DHT22;53568;52.164;4.472;2022-09-09T05:51:07;17.64;75.48
66670;DHT22;53568;52.164;4.472;2022-09-09T05:53:33;17.71;75.25
66670;DHT22;53568;52.164;4.472;2022-09-09T05:56:01;17.68;75.33
66670;DHT22;53568;52.164;4.472;2022-09-09T05:58:30;17.77;74.97
66670;DHT22;53568;52.164;4.472;2022-09-09T06:01:10;17.71;75.05
66670;DHT22;53568;52.164;4.472;2022-09-09T06:03:38;17.68;75.62
66670;DHT22;53568;52.164;4.472;2022-09-09T06:06:09;17.74;75.38
66670;DHT22;53568;52.164;4.472;2022-09-09T06:08:37;17.80;75.52
66670;DHT22;53568;52.164;4.472;2022-09-09T06:11:06;17.85;75.26
66670;DHT22;53568;52.164;4.472;2022-09-09T06:13:32;17.88;75.14
66670;DHT22;53568;52.164;4.472;2022-09-09T06:15:57;17.81;75.59
66670;DHT22;53568;52.164;4.472;2022-09-09T06:18:25;17.84;75.63
66670;DHT22;53568;52.164;4.472;2022-09-09T06:21:00;17.82;75.50
66670;DHT22;53568;52.164;4.472;2022-09-09T06:23:27;17.85;75.12
66670;DHT22;53568;52.164;4.472;2022-09-09T06:26:15;17.87;75.48
66670;DHT22;53568;52.164;4.472;2022-09-09T06:28:45;17.92;75.30
66670;DHT22;53568;52.164;4.472;2022-09-09T06:31:12;18.01;74.98
66670;DHT22;53568;52.164;4.472;2022-09-09T06:33:40;18.00;74.99
66670;DHT22;53568;52.164;4.472;2022-09-09T06:36:15;17.98;74.91
66670;DHT22;53568;52.164;4.472;2022-09-09T06:38:41;18.05;74.89
66670;DHT22;53568;52.164;4.472;2022-09-09T06:41:09;18.02;74.63
66670;DHT22;53568;52.164;4.472;2022-09-09T06:43:35;18.01;75.14
66670;DHT22;53568;52.164;4.472;2022-09-09T06:48:31;18.02;74.92
66670;DHT22;53568;52.164;4.472;2022-09-09T06:51:08;17.97;74.80
66670;DHT22;53568;52.164;4.472;2022-09-09T06:53:35;17.97;75.09
66670;DHT22;53568;52.164;4.472;2022-09-09T06:58:40;18.00;74.88
66670;DHT22;53568;52.164;4.472;2022-09-09T07:01:14;18.06;74.86
66670;DHT22;53568;52.164;4.472;2022-09-09T07:03:41;18.09;74.62
66670;DHT22;53568;52.164;4.472;2022-09-09T07:06:09;18.21;74.45
66670;DHT22;53568;52.164;4.472;2022-09-09T07:08:39;18.16;74.79
66670;DHT22;53568;52.164;4.472;2022-09-09T07:11:07;18.16;74.54
66670;DHT22;53568;52.164;4.472;2022-09-09T07:13:34;18.21;74.26
66670;DHT22;53568;52.164;4.472;2022-09-09T07:16:07;18.22;74.15
66670;DHT22;53568;52.164;4.472;2022-09-09T07:18:33;18.29;74.18
66670;DHT22;53568;52.164;4.472;2022-09-09T07:21:00;18.33;74.06
66670;DHT22;53568;52.164;4.472;2022-09-09T07:23:27;18.31;74.36
66670;DHT22;53568;52.164;4.472;2022-09-09T07:25:53;18.41;73.95
66670;DHT22;53568;52.164;4.472;2022-09-09T07:28:21;18.41;74.08
66670;DHT22;53568;52.164;4.472;2022-09-09T07:30:57;18.41;73.96
66670;DHT22;53568;52.164;4.472;2022-09-09T07:33:25;18.46;73.72
66670;DHT22;53568;52.164;4.472;2022-09-09T07:35:51;18.45;74.00
66670;DHT22;53568;52.164;4.472;2022-09-09T07:38:17;18.38;74.08
66670;DHT22;53568;52.164;4.472;2022-09-09T07:40:42;18.38;73.82
66670;DHT22;53568;52.164;4.472;2022-09-09T07:43:09;18.38;73.98
66670;DHT22;53568;52.164;4.472;2022-09-09T07:45:35;18.42;74.04
66670;DHT22;53568;52.164;4.472;2022-09-09T07:48:01;18.45;73.77
66670;DHT22;53568;52.164;4.472;2022-09-09T07:50:27;18.45;73.55
66670;DHT22;53568;52.164;4.472;2022-09-09T07:52:53;18.45;73.80
66670;DHT22;53568;52.164;4.472;2022-09-09T07:55:20;18.46;73.47
66670;DHT22;53568;52.164;4.472;2022-09-09T07:57:46;18.45;73.34
66670;DHT22;53568;52.164;4.472;2022-09-09T08:00:12;18.35;73.65
66670;DHT22;53568;52.164;4.472;2022-09-09T08:02:40;18.28;73.98
66670;DHT22;53568;52.164;4.472;2022-09-09T08:05:06;18.32;74.13
66670;DHT22;53568;52.164;4.472;2022-09-09T08:07:32;18.36;73.92
66670;DHT22;53568;52.164;4.472;2022-09-09T08:09:57;18.35;73.91
66670;DHT22;53568;52.164;4.472;2022-09-09T08:12:23;18.32;73.89
66670;DHT22;53568;52.164;4.472;2022-09-09T08:14:48;18.39;73.84
66670;DHT22;53568;52.164;4.472;2022-09-09T08:17:14;18.55;73.29
66670;DHT22;53568;52.164;4.472;2022-09-09T08:19:40;18.57;73.39
66670;DHT22;53568;52.164;4.472;2022-09-09T08:22:05;18.51;73.74
66670;DHT22;53568;52.164;4.472;2022-09-09T08:24:31;18.59;73.20
66670;DHT22;53568;52.164;4.472;2022-09-09T08:26:57;18.60;73.45
66670;DHT22;53568;52.164;4.472;2022-09-09T08:29:23;18.69;73.13
66670;DHT22;53568;52.164;4.472;2022-09-09T08:31:56;18.73;72.82
66670;DHT22;53568;52.164;4.472;2022-09-09T08:34:24;18.79;72.62
66670;DHT22;53568;52.164;4.472;2022-09-09T08:36:53;18.76;72.93
66670;DHT22;53568;52.164;4.472;2022-09-09T08:39:21;18.85;72.71
66670;DHT22;53568;52.164;4.472;2022-09-09T08:42:09;18.85;72.78
66670;DHT22;53568;52.164;4.472;2022-09-09T08:45:00;18.89;72.29
66670;DHT22;53568;52.164;4.472;2022-09-09T08:55:59;18.70;73.49
66670;DHT22;53568;52.164;4.472;2022-09-09T08:58:35;18.83;72.86
66670;DHT22;53568;52.164;4.472;2022-09-09T09:04:06;18.76;72.89
66670;DHT22;53568;52.164;4.472;2022-09-09T09:06:54;18.83;72.67
66670;DHT22;53568;52.164;4.472;2022-09-09T09:12:19;18.83;72.61
66670;DHT22;53568;52.164;4.472;2022-09-09T09:14:47;18.82;72.71
66670;DHT22;53568;52.164;4.472;2022-09-09T09:19:43;18.87;72.68
66670;DHT22;53568;52.164;4.472;2022-09-09T09:22:40;18.93;72.59
66670;DHT22;53568;52.164;4.472;2022-09-09T09:25:21;18.89;72.76
66670;DHT22;53568;52.164;4.472;2022-09-09T09:30:50;18.87;73.83
66670;DHT22;53568;52.164;4.472;2022-09-09T09:35:54;18.75;75.45
66670;DHT22;53568;52.164;4.472;2022-09-09T09:38:23;18.66;75.94
66670;DHT22;53568;52.164;4.472;2022-09-09T09:40:54;18.66;76.09
66670;DHT22;53568;52.164;4.472;2022-09-09T09:43:41;18.75;75.97
66670;DHT22;53568;52.164;4.472;2022-09-09T09:46:24;18.87;75.85
66670;DHT22;53568;52.164;4.472;2022-09-09T09:49:05;18.95;75.69
66670;DHT22;53568;52.164;4.472;2022-09-09T09:51:32;19.00;75.53
66670;DHT22;53568;52.164;4.472;2022-09-09T09:54:29;18.96;75.43
66670;DHT22;53568;52.164;4.472;2022-09-09T09:56:57;18.97;75.47
66670;DHT22;53568;52.164;4.472;2022-09-09T09:59:35;18.95;75.49
66670;DHT22;53568;52.164;4.472;2022-09-09T10:04:38;18.87;76.34
66670;DHT22;53568;52.164;4.472;2022-09-09T10:07:21;18.93;75.55
66670;DHT22;53568;52.164;4.472;2022-09-09T10:09:53;18.97;75.46
66670;DHT22;53568;52.164;4.472;2022-09-09T10:12:52;19.04;75.33
66670;DHT22;53568;52.164;4.472;2022-09-09T10:36:56;19.09;76.56
66670;DHT22;53568;52.164;4.472;2022-09-09T10:39:38;18.86;77.38
66670;DHT22;53568;52.164;4.472;2022-09-09T10:42:09;18.93;77.32
66670;DHT22;53568;52.164;4.472;2022-09-09T10:55:52;18.86;77.58
66670;DHT22;53568;52.164;4.472;2022-09-09T10:58:49;18.89;77.82
66670;DHT22;53568;52.164;4.472;2022-09-09T11:01:28;19.02;77.76
66670;DHT22;53568;52.164;4.472;2022-09-09T11:04:05;19.16;77.42
66670;DHT22;53568;52.164;4.472;2022-09-09T11:06:41;19.34;76.73
66670;DHT22;53568;52.164;4.472;2022-09-09T11:09:15;19.34;77.03
66670;DHT22;53568;52.164;4.472;2022-09-09T11:11:55;19.44;76.87
66670;DHT22;53568;52.164;4.472;2022-09-09T11:17:09;19.41;77.07
66670;DHT22;53568;52.164;4.472;2022-09-09T11:19:41;19.33;77.85
66670;DHT22;53568;52.164;4.472;2022-09-09T11:22:22;19.47;77.13
66670;DHT22;53568;52.164;4.472;2022-09-09T11:31:00;19.51;76.75
66670;DHT22;53568;52.164;4.472;2022-09-09T11:33:48;19.51;76.75
66670;DHT22;53568;52.164;4.472;2022-09-09T11:39:27;19.50;75.51
66670;DHT22;53568;52.164;4.472;2022-09-09T11:41:46;19.58;75.71
66670;DHT22;53568;52.164;4.472;2022-09-09T11:44:19;19.63;75.45
66670;DHT22;53568;52.164;4.472;2022-09-09T11:46:51;19.57;75.29
66670;DHT22;53568;52.164;4.472;2022-09-09T11:49:40;19.63;75.04
66670;DHT22;53568;52.164;4.472;2022-09-09T11:52:22;19.61;75.91
66670;DHT22;53568;52.164;4.472;2022-09-09T11:54:49;19.63;75.94
66670;DHT22;53568;52.164;4.472;2022-09-09T11:57:35;19.64;76.16
66670;DHT22;53568;52.164;4.472;2022-09-09T12:00:01;19.64;76.20
66670;DHT22;53568;52.164;4.472;2022-09-09T12:02:29;19.60;76.23
66670;DHT22;53568;52.164;4.472;2022-09-09T12:05:04;19.54;76.41
66670;DHT22;53568;52.164;4.472;2022-09-09T12:07:36;19.46;76.55
66670;DHT22;53568;52.164;4.472;2022-09-09T12:12:48;19.40;77.04
66670;DHT22;53568;52.164;4.472;2022-09-09T12:15:27;19.40;77.37
66670;DHT22;53568;52.164;4.472;2022-09-09T12:17:56;19.49;77.23
66670;DHT22;53568;52.164;4.472;2022-09-09T12:20:38;19.44;77.46
66670;DHT22;53568;52.164;4.472;2022-09-09T12:29:19;19.46;78.14
66670;DHT22;53568;52.164;4.472;2022-09-09T12:34:44;19.57;77.77
66670;DHT22;53568;52.164;4.472;2022-09-09T12:40:06;19.61;77.60
66670;DHT22;53568;52.164;4.472;2022-09-09T12:42:32;19.55;77.74
66670;DHT22;53568;52.164;4.472;2022-09-09T12:45:03;19.64;77.48
66670;DHT22;53568;52.164;4.472;2022-09-09T12:47:51;19.68;77.48
66670;DHT22;53568;52.164;4.472;2022-09-09T12:50:22;19.65;77.47
66670;DHT22;53568;52.164;4.472;2022-09-09T12:52:53;19.65;77.75
66670;DHT22;53568;52.164;4.472;2022-09-09T12:55:23;19.73;77.35
66670;DHT22;53568;52.164;4.472;2022-09-09T12:57:51;19.71;76.91
66670;DHT22;53568;52.164;4.472;2022-09-09T13:00:23;19.74;77.02
66670;DHT22;53568;52.164;4.472;2022-09-09T13:02:57;19.77;76.69
66670;DHT22;53568;52.164;4.472;2022-09-09T13:05:36;19.82;76.50
66670;DHT22;53568;52.164;4.472;2022-09-09T13:08:06;19.87;77.13
66670;DHT22;53568;52.164;4.472;2022-09-09T13:10:57;19.70;76.65
66670;DHT22;53568;52.164;4.472;2022-09-09T13:13:39;19.79;77.28
66670;DHT22;53568;52.164;4.472;2022-09-09T13:16:23;19.94;76.38
66670;DHT22;53568;52.164;4.472;2022-09-09T13:18:50;19.94;76.73
66670;DHT22;53568;52.164;4.472;2022-09-09T13:21:17;20.08;75.44
66670;DHT22;53568;52.164;4.472;2022-09-09T13:23:49;19.94;76.60
66670;DHT22;53568;52.164;4.472;2022-09-09T13:26:20;19.94;76.30
66670;DHT22;53568;52.164;4.472;2022-09-09T13:28:48;19.98;76.74
66670;DHT22;53568;52.164;4.472;2022-09-09T13:31:32;20.11;76.36
66670;DHT22;53568;52.164;4.472;2022-09-09T13:33:59;20.18;76.26
66670;DHT22;53568;52.164;4.472;2022-09-09T13:36:34;20.12;75.79
66670;DHT22;53568;52.164;4.472;2022-09-09T13:39:02;20.05;76.04
66670;DHT22;53568;52.164;4.472;2022-09-09T13:41:41;19.94;76.70
66670;DHT22;53568;52.164;4.472;2022-09-09T13:44:28;19.91;76.82
66670;DHT22;53568;52.164;4.472;2022-09-09T13:47:19;19.87;77.02
66670;DHT22;53568;52.164;4.472;2022-09-09T13:49:45;19.85;77.20
66670;DHT22;53568;52.164;4.472;2022-09-09T13:52:13;19.77;77.44
66670;DHT22;53568;52.164;4.472;2022-09-09T13:54:40;19.82;77.02
66670;DHT22;53568;52.164;4.472;2022-09-09T13:57:15;19.82;77.19
66670;DHT22;53568;52.164;4.472;2022-09-09T13:59:42;19.73;77.34
66670;DHT22;53568;52.164;4.472;2022-09-09T14:02:08;19.63;77.14
66670;DHT22;53568;52.164;4.472;2022-09-09T14:04:33;19.53;75.93
66670;DHT22;53568;52.164;4.472;2022-09-09T14:07:01;19.54;75.32
66670;DHT22;53568;52.164;4.472;2022-09-09T14:09:27;19.46;75.36
66670;DHT22;53568;52.164;4.472;2022-09-09T14:11:53;19.44;74.29
66670;DHT22;53568;52.164;4.472;2022-09-09T14:14:20;19.41;74.48
66670;DHT22;53568;52.164;4.472;2022-09-09T14:16:46;19.34;74.65
66670;DHT22;53568;52.164;4.472;2022-09-09T14:19:11;19.28;74.70
66670;DHT22;53568;52.164;4.472;2022-09-09T14:21:36;19.23;74.91
66670;DHT22;53568;52.164;4.472;2022-09-09T14:24:02;19.35;74.85
66670;DHT22;53568;52.164;4.472;2022-09-09T14:26:27;19.41;74.92
66670;DHT22;53568;52.164;4.472;2022-09-09T14:28:55;19.33;75.59
66670;DHT22;53568;52.164;4.472;2022-09-09T14:31:24;19.37;75.86
66670;DHT22;53568;52.164;4.472;2022-09-09T14:33:51;19.47;76.47
66670;DHT22;53568;52.164;4.472;2022-09-09T14:36:17;19.53;77.07
66670;DHT22;53568;52.164;4.472;2022-09-09T14:38:42;19.70;77.04
66670;DHT22;53568;52.164;4.472;2022-09-09T14:41:12;19.81;76.92
66670;DHT22;53568;52.164;4.472;2022-09-09T14:43:42;19.98;76.91
66670;DHT22;53568;52.164;4.472;2022-09-09T14:46:13;19.92;76.38
66670;DHT22;53568;52.164;4.472;2022-09-09T14:48:40;19.98;76.46
66670;DHT22;53568;52.164;4.472;2022-09-09T14:51:16;20.01;76.93
66670;DHT22;53568;52.164;4.472;2022-09-09T14:53:43;20.08;76.84
66670;DHT22;53568;52.164;4.472;2022-09-09T14:56:15;20.04;76.89
66670;DHT22;53568;52.164;4.472;2022-09-09T14:58:42;20.12;76.98
66670;DHT22;53568;52.164;4.472;2022-09-09T15:01:11;20.04;77.27
66670;DHT22;53568;52.164;4.472;2022-09-09T15:03:43;20.04;77.34
66670;DHT22;53568;52.164;4.472;2022-09-09T15:06:11;20.02;77.44
66670;DHT22;53568;52.164;4.472;2022-09-09T15:08:39;19.92;77.35
66670;DHT22;53568;52.164;4.472;2022-09-09T15:11:06;19.73;77.42
66670;DHT22;53568;52.164;4.472;2022-09-09T15:13:35;19.55;77.49
66670;DHT22;53568;52.164;4.472;2022-09-09T15:16:10;19.49;77.81
66670;DHT22;53568;52.164;4.472;2022-09-09T15:18:36;19.53;77.96
66670;DHT22;53568;52.164;4.472;2022-09-09T15:21:05;19.58;78.01
66670;DHT22;53568;52.164;4.472;2022-09-09T15:23:32;19.58;77.85
66670;DHT22;53568;52.164;4.472;2022-09-09T15:25:58;19.63;77.85
66670;DHT22;53568;52.164;4.472;2022-09-09T15:28:23;19.67;77.68
66670;DHT22;53568;52.164;4.472;2022-09-09T15:30:51;19.71;77.59
66670;DHT22;53568;52.164;4.472;2022-09-09T15:33:18;19.81;77.47
66670;DHT22;53568;52.164;4.472;2022-09-09T15:35:44;19.85;77.40
66670;DHT22;53568;52.164;4.472;2022-09-09T15:38:10;19.87;77.41
66670;DHT22;53568;52.164;4.472;2022-09-09T15:40:41;19.91;77.42
66670;DHT22;53568;52.164;4.472;2022-09-09T15:43:07;20.01;77.42
66670;DHT22;53568;52.164;4.472;2022-09-09T15:45:33;19.98;76.58
66670;DHT22;53568;52.164;4.472;2022-09-09T15:48:00;19.95;76.33
66670;DHT22;53568;52.164;4.472;2022-09-09T15:50:26;20.01;75.94
66670;DHT22;53568;52.164;4.472;2022-09-09T15:52:52;20.08;75.84
66670;DHT22;53568;52.164;4.472;2022-09-09T15:55:19;20.15;75.27
66670;DHT22;53568;52.164;4.472;2022-09-09T15:57:49;20.29;74.97
66670;DHT22;53568;52.164;4.472;2022-09-09T16:00:16;20.29;74.53
66670;DHT22;53568;52.164;4.472;2022-09-09T16:02:41;20.31;74.82
66670;DHT22;53568;52.164;4.472;2022-09-09T16:05:07;20.41;74.89
66670;DHT22;53568;52.164;4.472;2022-09-09T16:07:33;20.39;74.44
66670;DHT22;53568;52.164;4.472;2022-09-09T16:10:00;20.32;75.19
66670;DHT22;53568;52.164;4.472;2022-09-09T16:12:25;20.41;75.24
66670;DHT22;53568;52.164;4.472;2022-09-09T16:14:51;20.46;74.97
66670;DHT22;53568;52.164;4.472;2022-09-09T16:17:17;20.46;75.35
66670;DHT22;53568;52.164;4.472;2022-09-09T16:19:44;20.49;75.02
66670;DHT22;53568;52.164;4.472;2022-09-09T16:22:11;20.49;74.80
66670;DHT22;53568;52.164;4.472;2022-09-09T16:24:36;20.55;74.25
66670;DHT22;53568;52.164;4.472;2022-09-09T16:27:02;20.46;74.75
66670;DHT22;53568;52.164;4.472;2022-09-09T16:29:27;20.39;74.84
66670;DHT22;53568;52.164;4.472;2022-09-09T16:31:54;20.39;74.88
66670;DHT22;53568;52.164;4.472;2022-09-09T16:34:20;20.42;74.79
66670;DHT22;53568;52.164;4.472;2022-09-09T16:36:47;20.43;74.69
66670;DHT22;53568;52.164;4.472;2022-09-09T16:39:18;20.42;74.70
66670;DHT22;53568;52.164;4.472;2022-09-09T16:41:46;20.45;74.89
66670;DHT22;53568;52.164;4.472;2022-09-09T16:44:13;20.45;75.17
66670;DHT22;53568;52.164;4.472;2022-09-09T16:46:42;20.46;75.01
66670;DHT22;53568;52.164;4.472;2022-09-09T16:49:12;20.41;75.13
66670;DHT22;53568;52.164;4.472;2022-09-09T16:51:50;20.41;75.31
66670;DHT22;53568;52.164;4.472;2022-09-09T16:54:18;20.29;75.63
66670;DHT22;53568;52.164;4.472;2022-09-09T16:56:46;20.25;75.78
66670;DHT22;53568;52.164;4.472;2022-09-09T16:59:13;20.21;76.37
66670;DHT22;53568;52.164;4.472;2022-09-09T17:01:41;20.21;76.28
66670;DHT22;53568;52.164;4.472;2022-09-09T17:04:13;20.21;76.45
66670;DHT22;53568;52.164;4.472;2022-09-09T17:06:41;20.22;76.22
66670;DHT22;53568;52.164;4.472;2022-09-09T17:09:09;20.32;76.19
66670;DHT22;53568;52.164;4.472;2022-09-09T17:11:37;20.29;76.19
66670;DHT22;53568;52.164;4.472;2022-09-09T17:14:04;20.32;76.13
66670;DHT22;53568;52.164;4.472;2022-09-09T17:16:32;20.39;76.05
66670;DHT22;53568;52.164;4.472;2022-09-09T17:19:00;20.39;76.57
66670;DHT22;53568;52.164;4.472;2022-09-09T17:21:28;20.31;76.72
66670;DHT22;53568;52.164;4.472;2022-09-09T17:23:55;20.12;77.58
66670;DHT22;53568;52.164;4.472;2022-09-09T17:26:23;20.15;77.34
66670;DHT22;53568;52.164;4.472;2022-09-09T17:28:52;20.07;77.57
66670;DHT22;53568;52.164;4.472;2022-09-09T17:31:18;20.08;77.70
66670;DHT22;53568;52.164;4.472;2022-09-09T17:33:49;20.12;77.63
66670;DHT22;53568;52.164;4.472;2022-09-09T17:36:18;20.17;77.53
66670;DHT22;53568;52.164;4.472;2022-09-09T17:38:44;20.14;77.27
66670;DHT22;53568;52.164;4.472;2022-09-09T17:41:16;20.09;77.45
66670;DHT22;53568;52.164;4.472;2022-09-09T17:43:43;20.12;77.52
66670;DHT22;53568;52.164;4.472;2022-09-09T17:46:15;20.17;77.55
66670;DHT22;53568;52.164;4.472;2022-09-09T17:48:43;20.18;77.63
66670;DHT22;53568;52.164;4.472;2022-09-09T17:51:12;20.19;77.73
66670;DHT22;53568;52.164;4.472;2022-09-09T17:53:43;20.26;77.72
66670;DHT22;53568;52.164;4.472;2022-09-09T17:56:11;20.31;77.57
66670;DHT22;53568;52.164;4.472;2022-09-09T17:58:38;20.36;77.44
66670;DHT22;53568;52.164;4.472;2022-09-09T18:01:20;20.38;77.32
66670;DHT22;53568;52.164;4.472;2022-09-09T18:03:47;20.26;77.33